Time;durP1;ratioP1;P1;durP2;ratioP2;P2;SDS_P1;SDS_P2;PMS_P1;PMS_P2;Temp;Humidity;BMP_temperature;BMP_pressure;BME280_temperature;BME280_humidity;BME280_pressure;Samples;Min_cycle;Max_cycle;Signal;HPM_P1;HPM_P2
2021/01/08 00:02:31;;;;;;;0.90;0.73;;;20.40;42.30;;;;;;6277401;28;20056;-61
2021/01/08 00:05:31;;;;;;;1.20;0.85;;;20.40;42.30;;;;;;6278219;28;20372;-61
2021/01/08 00:08:32;;;;;;;1.00;0.90;;;20.40;42.40;;;;;;6277141;28;20024;-61
2021/01/08 00:11:35;;;;;;;0.93;0.68;;;20.40;42.40;;;;;;6277541;28;20043;-61
2021/01/08 00:14:35;;;;;;;1.15;0.75;;;20.40;42.20;;;;;;6293521;28;20035;-62
2021/01/08 00:17:36;;;;;;;0.85;0.77;;;20.30;42.20;;;;;;6270293;28;20021;-61
2021/01/08 00:20:36;;;;;;;0.95;0.75;;;20.40;42.50;;;;;;6277316;28;20025;-62
2021/01/08 00:23:37;;;;;;;1.10;0.93;;;20.30;42.30;;;;;;6277117;28;20055;-63
2021/01/08 00:26:41;;;;;;;0.80;0.80;;;20.30;42.50;;;;;;6277404;28;20056;-62
2021/01/08 00:29:42;;;;;;;1.50;1.10;;;20.30;42.40;;;;;;6277011;28;20676;-63
2021/01/08 00:32:44;;;;;;;0.85;0.80;;;20.30;42.30;;;;;;6277047;28;20029;-63
2021/01/08 00:35:45;;;;;;;2.78;0.90;;;20.30;42.40;;;;;;6292985;28;20042;-62
2021/01/08 00:38:45;;;;;;;1.05;0.90;;;20.30;42.30;;;;;;6293364;28;20032;-61
2021/01/08 00:41:47;;;;;;;0.95;0.80;;;20.30;42.20;;;;;;6293234;28;20669;-62
2021/01/08 00:44:47;;;;;;;0.85;0.60;;;20.30;42.30;;;;;;6288360;28;20025;-63
2021/01/08 00:47:48;;;;;;;1.25;0.90;;;20.30;42.20;;;;;;6276827;28;20201;-63
2021/01/08 00:50:48;;;;;;;0.82;0.77;;;20.30;42.30;;;;;;6268018;28;20029;-63
2021/01/08 00:53:49;;;;;;;1.10;0.90;;;20.30;42.30;;;;;;6271908;28;20034;-61
2021/01/08 00:56:51;;;;;;;1.00;0.90;;;20.30;42.30;;;;;;6268373;28;20401;-62
2021/01/08 00:59:52;;;;;;;0.98;0.80;;;20.30;42.30;;;;;;6276347;28;20525;-63
2021/01/08 01:02:53;;;;;;;0.85;0.80;;;20.30;42.30;;;;;;6292650;28;20020;-61
2021/01/08 01:05:53;;;;;;;1.30;0.88;;;20.30;42.30;;;;;;6268055;28;20053;-62
2021/01/08 01:08:55;;;;;;;1.20;0.80;;;20.30;42.30;;;;;;6276340;28;20028;-63
2021/01/08 01:11:56;;;;;;;0.73;0.68;;;20.30;42.30;;;;;;6275949;28;20037;-61
2021/01/08 01:14:56;;;;;;;0.63;0.60;;;20.30;42.50;;;;;;6276080;28;20089;-62
2021/01/08 01:17:57;;;;;;;1.08;0.90;;;20.30;42.40;;;;;;6276179;28;20032;-61
2021/01/08 01:21:00;;;;;;;1.00;0.70;;;20.30;42.30;;;;;;6275619;28;20070;-62
2021/01/08 01:24:01;;;;;;;1.40;0.90;;;20.20;42.30;;;;;;6268107;28;20059;-60
2021/01/08 01:27:01;;;;;;;0.98;0.85;;;20.20;42.40;;;;;;6275826;28;20742;-62
2021/01/08 01:30:02;;;;;;;1.30;1.00;;;20.20;42.40;;;;;;6275576;28;20025;-62
2021/01/08 01:33:03;;;;;;;0.80;0.80;;;20.20;42.50;;;;;;6275263;28;20064;-58
2021/01/08 01:36:06;;;;;;;1.30;0.90;;;20.20;42.30;;;;;;6267240;28;20029;-61
2021/01/08 01:39:06;;;;;;;1.33;1.00;;;20.20;42.30;;;;;;6267549;28;20033;-61
2021/01/08 01:42:07;;;;;;;1.48;1.00;;;20.20;42.30;;;;;;6274959;28;20051;-62
2021/01/08 01:45:11;;;;;;;1.00;0.77;;;20.20;42.30;;;;;;6275634;28;20108;-63
2021/01/08 01:48:13;;;;;;;1.33;1.10;;;20.20;42.30;;;;;;6275439;28;20111;-61
2021/01/08 01:51:14;;;;;;;0.93;0.70;;;20.20;42.40;;;;;;6275132;28;20150;-61
2021/01/08 01:54:15;;;;;;;0.85;0.80;;;20.20;42.40;;;;;;6275333;28;20389;-62
2021/01/08 01:57:16;;;;;;;1.48;1.00;;;20.20;42.40;;;;;;6274297;28;20033;-63
2021/01/08 02:00:17;;;;;;;1.08;0.98;;;20.20;42.40;;;;;;6274977;28;20036;-60
2021/01/08 02:03:22;;;;;;;1.50;0.77;;;20.20;42.40;;;;;;6274677;28;20027;-62
2021/01/08 02:06:36;;;;;;;0.98;0.90;;;20.20;42.50;;;;;;6275156;28;20458;-62
2021/01/08 02:09:37;;;;;;;1.08;0.90;;;20.20;42.40;;;;;;6266568;28;20091;-62
2021/01/08 02:12:39;;;;;;;1.00;0.90;;;20.20;42.70;;;;;;6274528;28;20024;-60
2021/01/08 02:15:40;;;;;;;3.33;1.13;;;20.20;42.60;;;;;;6274882;28;20029;-62
2021/01/08 02:18:43;;;;;;;0.80;0.73;;;20.10;42.50;;;;;;6274826;28;20025;-62
2021/01/08 02:21:48;;;;;;;1.05;0.85;;;20.20;42.50;;;;;;6274407;28;20131;-63
2021/01/08 02:25:12;;;;;;;1.10;0.95;;;20.10;42.50;;;;;;6274499;28;20032;-60
2021/01/08 02:28:40;;;;;;;1.30;1.05;;;20.20;42.50;;;;;;6274253;28;20085;-62
2021/01/08 02:31:40;;;;;;;1.20;1.10;;;20.10;42.50;;;;;;6271645;28;20024;-62
2021/01/08 02:34:41;;;;;;;1.20;0.90;;;20.10;42.40;;;;;;6274274;28;20031;-62
2021/01/08 02:37:43;;;;;;;0.98;0.90;;;20.10;42.40;;;;;;6266564;28;20120;-62
2021/01/08 02:40:50;;;;;;;1.05;0.80;;;20.10;42.40;;;;;;6272117;28;20496;-62
2021/01/08 02:43:52;;;;;;;1.40;1.00;;;20.20;42.40;;;;;;6274516;28;20453;-62
2021/01/08 02:46:52;;;;;;;1.17;1.00;;;20.10;42.40;;;;;;6274251;28;20029;-62
2021/01/08 02:49:53;;;;;;;0.88;0.82;;;20.10;42.40;;;;;;6274546;28;20550;-63
2021/01/08 02:52:59;;;;;;;1.00;0.90;;;20.10;42.40;;;;;;6273863;28;20048;-63
2021/01/08 02:56:05;;;;;;;1.30;1.00;;;20.10;42.50;;;;;;6274228;28;20052;-62
2021/01/08 02:59:07;;;;;;;1.40;0.85;;;20.10;42.60;;;;;;6274348;28;20029;-62
2021/01/08 03:02:08;;;;;;;1.20;1.02;;;20.10;42.50;;;;;;6273732;28;20029;-63
2021/01/08 03:05:09;;;;;;;1.25;1.00;;;20.10;42.50;;;;;;6274275;28;20027;-60
2021/01/08 03:08:10;;;;;;;0.95;0.80;;;20.10;42.50;;;;;;6275096;28;20021;-62
2021/01/08 03:11:11;;;;;;;1.15;0.93;;;20.10;42.50;;;;;;6278928;28;20024;-62
2021/01/08 03:14:11;;;;;;;1.50;1.10;;;20.10;42.50;;;;;;6278874;28;20028;-60
2021/01/08 03:17:13;;;;;;;1.40;0.93;;;20.10;42.60;;;;;;6270539;28;20075;-62
2021/01/08 03:20:14;;;;;;;1.27;1.00;;;20.10;42.50;;;;;;6257442;28;20669;-63
2021/01/08 03:23:14;;;;;;;1.02;0.88;;;20.10;42.60;;;;;;6278555;28;20024;-62
2021/01/08 03:26:15;;;;;;;1.13;0.90;;;20.10;42.60;;;;;;6278388;28;20024;-63
2021/01/08 03:29:16;;;;;;;0.90;0.80;;;20.10;42.60;;;;;;6278695;28;20037;-63
2021/01/08 03:32:16;;;;;;;1.63;1.00;;;20.00;43.20;;;;;;6278338;28;20024;-62
2021/01/08 03:35:17;;;;;;;1.38;0.88;;;20.00;42.50;;;;;;6278582;28;20071;-62
2021/01/08 03:38:17;;;;;;;1.55;1.25;;;20.00;42.50;;;;;;6278256;28;20046;-62
2021/01/08 03:41:18;;;;;;;0.93;0.80;;;20.00;42.40;;;;;;6296253;28;20017;-60
2021/01/08 03:44:19;;;;;;;1.30;1.00;;;20.00;42.40;;;;;;6278465;28;20013;-63
2021/01/08 03:47:19;;;;;;;1.15;1.05;;;20.10;42.50;;;;;;6277695;28;20464;-63
2021/01/08 03:50:20;;;;;;;1.38;0.93;;;20.00;42.50;;;;;;6296065;28;20029;-61
2021/01/08 03:53:20;;;;;;;0.85;0.77;;;20.10;42.60;;;;;;6269692;28;20029;-63
2021/01/08 03:56:21;;;;;;;1.20;1.00;;;20.00;42.40;;;;;;6273809;28;20120;-58
2021/01/08 03:59:21;;;;;;;1.00;0.85;;;20.00;42.40;;;;;;6278240;28;20108;-62
2021/01/08 04:02:21;;;;;;;1.08;0.98;;;20.00;42.50;;;;;;6277458;28;20612;-61
2021/01/08 04:05:22;;;;;;;0.80;0.80;;;20.00;42.70;;;;;;6278184;28;20024;-62
2021/01/08 04:08:23;;;;;;;0.85;0.80;;;20.00;42.60;;;;;;6277335;28;20105;-62
2021/01/08 04:11:23;;;;;;;1.27;0.90;;;20.00;42.60;;;;;;6277983;28;20020;-62
2021/01/08 04:14:24;;;;;;;1.42;0.85;;;20.00;42.60;;;;;;6269325;28;20029;-63
2021/01/08 04:17:24;;;;;;;1.20;0.95;;;20.00;42.50;;;;;;6255499;28;20025;-61
2021/01/08 04:20:25;;;;;;;0.75;0.70;;;20.00;42.60;;;;;;6294361;28;20422;-60
2021/01/08 04:23:25;;;;;;;1.27;1.02;;;20.00;42.60;;;;;;6269350;28;20021;-62
2021/01/08 04:26:26;;;;;;;1.13;1.02;;;20.00;42.70;;;;;;6269446;28;20052;-61
2021/01/08 04:29:26;;;;;;;3.20;0.90;;;20.00;42.60;;;;;;6287923;28;20382;-62
2021/01/08 04:32:27;;;;;;;1.13;1.00;;;20.00;42.70;;;;;;6277474;28;20039;-58
2021/01/08 04:35:27;;;;;;;1.60;1.15;;;20.00;42.60;;;;;;6277204;28;20109;-61
2021/01/08 04:38:28;;;;;;;1.50;1.00;;;20.00;42.60;;;;;;6277208;28;20020;-62
2021/01/08 04:41:30;;;;;;;1.30;1.02;;;20.00;42.60;;;;;;6277134;28;20032;-61
2021/01/08 04:44:31;;;;;;;1.83;0.98;;;20.00;42.60;;;;;;6276734;28;20024;-61
2021/01/08 04:47:33;;;;;;;2.33;0.88;;;20.00;42.50;;;;;;6277037;28;20105;-61
2021/01/08 04:50:34;;;;;;;1.27;1.00;;;20.00;42.60;;;;;;6276366;28;20032;-62
2021/01/08 04:53:36;;;;;;;1.45;0.98;;;20.00;42.60;;;;;;6272656;28;20054;-59
2021/01/08 04:56:43;;;;;;;1.05;0.90;;;20.00;42.60;;;;;;6268161;28;20074;-62
2021/01/08 04:59:44;;;;;;;1.05;0.90;;;20.00;42.60;;;;;;6276445;28;20067;-58
2021/01/08 05:02:45;;;;;;;1.30;0.95;;;20.00;42.60;;;;;;6275841;28;20532;-62
2021/01/08 05:05:45;;;;;;;1.13;0.93;;;20.00;42.60;;;;;;6268120;28;20270;-60
2021/01/08 05:08:46;;;;;;;1.10;0.93;;;20.00;42.60;;;;;;6269528;28;20078;-62
2021/01/08 05:11:46;;;;;;;1.20;1.05;;;20.00;42.50;;;;;;6267860;28;20033;-61
2021/01/08 05:14:47;;;;;;;1.17;0.95;;;20.00;42.50;;;;;;6292576;28;20147;-60
2021/01/08 05:17:48;;;;;;;1.38;1.00;;;20.00;42.60;;;;;;6276217;28;20028;-62
2021/01/08 05:20:51;;;;;;;1.15;0.90;;;20.10;42.80;;;;;;6275573;28;20039;-62
2021/01/08 05:23:53;;;;;;;0.85;0.77;;;20.10;42.80;;;;;;6275929;28;20389;-62
2021/01/08 05:26:53;;;;;;;1.73;1.27;;;20.10;42.80;;;;;;6276018;28;20051;-61
2021/01/08 05:29:54;;;;;;;1.10;1.00;;;20.10;42.90;;;;;;6275172;28;20520;-62
2021/01/08 05:33:05;;;;;;;1.13;0.98;;;20.10;42.90;;;;;;6274387;28;20028;-62
2021/01/08 05:36:05;;;;;;;1.02;0.90;;;20.10;43.00;;;;;;6275283;28;20023;-61
2021/01/08 05:39:06;;;;;;;1.10;0.93;;;20.10;43.00;;;;;;6275560;28;20028;-61
2021/01/08 05:42:07;;;;;;;1.13;1.00;;;20.10;43.00;;;;;;6274983;28;20020;-62
2021/01/08 05:45:08;;;;;;;0.77;0.77;;;20.10;43.00;;;;;;6267215;28;20021;-62
2021/01/08 05:48:09;;;;;;;1.30;1.13;;;20.10;43.00;;;;;;6283413;28;20029;-62
2021/01/08 05:51:14;;;;;;;1.02;0.93;;;20.10;43.00;;;;;;6267034;28;20048;-57
2021/01/08 05:54:15;;;;;;;1.27;1.10;;;20.10;43.10;;;;;;6267121;28;20106;-61
2021/01/08 05:57:17;;;;;;;1.00;0.82;;;20.10;43.10;;;;;;6291788;28;20077;-61
2021/01/08 06:00:19;;;;;;;1.00;0.90;;;20.10;43.10;;;;;;6291309;28;20539;-62
2021/01/08 06:03:21;;;;;;;1.08;0.98;;;20.10;43.10;;;;;;6291744;28;20362;-62
2021/01/08 06:06:24;;;;;;;1.15;1.02;;;20.10;43.10;;;;;;6290554;28;20509;-60
2021/01/08 06:09:25;;;;;;;0.95;0.85;;;20.20;42.90;;;;;;6275049;28;20595;-58
2021/01/08 06:12:26;;;;;;;3.13;0.70;;;20.30;42.80;;;;;;6274603;28;20423;-61
2021/01/08 06:15:27;;;;;;;1.00;0.82;;;20.30;42.60;;;;;;6274845;28;20043;-62
2021/01/08 06:18:28;;;;;;;1.80;0.95;;;20.40;42.60;;;;;;6274789;28;20431;-61
2021/01/08 06:21:56;;;;;;;1.30;0.90;;;20.50;42.60;;;;;;6274408;28;20025;-61
2021/01/08 06:24:57;;;;;;;0.80;0.80;;;20.60;42.70;;;;;;6272707;28;20033;-61
2021/01/08 06:28:03;;;;;;;1.10;0.85;;;20.70;42.90;;;;;;6274667;28;20120;-62
2021/01/08 06:31:15;;;;;;;1.05;0.80;;;20.70;42.70;;;;;;6274560;28;20481;-61
2021/01/08 06:34:27;;;;;;;0.82;0.75;;;20.70;42.70;;;;;;6274475;28;20060;-62
2021/01/08 06:37:36;;;;;;;1.25;0.90;;;20.80;42.80;;;;;;6274515;28;20016;-62
2021/01/08 06:40:41;;;;;;;1.00;0.90;;;20.80;42.80;;;;;;6274174;28;20131;-62
2021/01/08 06:43:47;;;;;;;1.48;0.73;;;20.80;42.70;;;;;;6278648;28;20020;-60
2021/01/08 06:46:51;;;;;;;1.40;0.80;;;20.90;42.80;;;;;;6278445;28;20024;-60
2021/01/08 06:49:54;;;;;;;1.25;1.05;;;20.90;42.80;;;;;;6282705;28;20028;-57
2021/01/08 06:53:04;;;;;;;0.95;0.85;;;20.90;42.70;;;;;;6290882;28;20104;-62
2021/01/08 06:56:13;;;;;;;0.80;0.77;;;20.90;42.70;;;;;;6297355;28;20687;-60
2021/01/08 06:59:17;;;;;;;1.10;1.00;;;20.90;42.70;;;;;;6282355;28;20120;-61
2021/01/08 07:02:21;;;;;;;1.63;0.80;;;21.00;42.80;;;;;;6288825;28;20066;-62
2021/01/08 07:05:21;;;;;;;3.95;1.00;;;21.00;42.80;;;;;;6285581;28;20024;-61
2021/01/08 07:08:24;;;;;;;1.67;0.90;;;21.00;42.70;;;;;;6284059;28;20481;-62
2021/01/08 07:11:25;;;;;;;1.08;0.88;;;21.00;42.70;;;;;;6283787;28;20381;-62
2021/01/08 07:14:27;;;;;;;0.95;0.85;;;21.10;42.80;;;;;;6283925;28;20028;-61
2021/01/08 07:17:32;;;;;;;1.00;0.90;;;21.10;42.80;;;;;;6283954;28;20021;-62
2021/01/08 07:20:33;;;;;;;1.05;0.80;;;21.00;42.70;;;;;;6282999;28;20021;-61
2021/01/08 07:23:35;;;;;;;1.48;0.93;;;21.10;42.80;;;;;;6275546;28;20082;-62
2021/01/08 07:26:36;;;;;;;3.85;1.17;;;21.10;43.20;;;;;;6277668;28;20024;-60
2021/01/08 07:29:37;;;;;;;6.45;1.30;;;21.10;43.10;;;;;;6281235;28;20051;-60
2021/01/08 07:32:51;;;;;;;1.50;1.20;;;21.30;42.60;;;;;;6281758;28;20074;-59
2021/01/08 07:35:52;;;;;;;3.35;1.08;;;21.40;42.50;;;;;;6281692;28;20020;-60
2021/01/08 07:38:54;;;;;;;6.35;1.17;;;21.40;42.40;;;;;;6282340;28;20025;-60
2021/01/08 07:41:54;;;;;;;2.30;1.30;;;21.50;42.30;;;;;;6278720;28;20017;-61
2021/01/08 07:44:59;;;;;;;6.68;1.10;;;21.50;42.30;;;;;;6281845;28;20031;-60
2021/01/08 07:47:59;;;;;;;2.85;1.33;;;21.50;42.40;;;;;;6282097;28;20081;-57
2021/01/08 07:51:06;;;;;;;2.67;1.50;;;21.60;42.70;;;;;;6299787;28;20020;-61
2021/01/08 07:54:07;;;;;;;1.60;1.40;;;21.60;42.40;;;;;;6280734;28;20043;-60
2021/01/08 07:57:07;;;;;;;2.88;1.42;;;21.60;42.40;;;;;;6277762;28;20028;-60
2021/01/08 08:00:27;;;;;;;2.40;1.45;;;21.60;42.40;;;;;;6290516;28;20037;-60
2021/01/08 08:03:27;;;;;;;1.35;1.25;;;21.60;42.30;;;;;;6284136;28;20024;-59
2021/01/08 08:06:30;;;;;;;2.00;1.17;;;21.60;42.30;;;;;;6289972;28;20507;-61
2021/01/08 08:09:31;;;;;;;1.35;1.23;;;21.70;42.40;;;;;;6277467;28;20038;-61
2021/01/08 08:12:32;;;;;;;1.50;1.30;;;21.70;42.40;;;;;;6277391;28;20484;-59
2021/01/08 08:15:45;;;;;;;1.58;1.38;;;21.70;42.50;;;;;;6277165;28;20028;-60
2021/01/08 08:18:53;;;;;;;1.85;1.42;;;21.60;42.40;;;;;;6275754;28;20510;-60
2021/01/08 08:21:53;;;;;;;2.25;1.63;;;21.70;42.50;;;;;;6276537;28;20401;-60
2021/01/08 08:24:54;;;;;;;2.35;1.42;;;21.60;42.40;;;;;;6293556;28;20044;-60
2021/01/08 08:27:59;;;;;;;1.73;1.35;;;21.60;42.50;;;;;;6271690;28;20036;-60
2021/01/08 08:31:01;;;;;;;1.95;1.60;;;21.60;42.40;;;;;;6284311;28;20043;-59
2021/01/08 08:34:03;;;;;;;1.80;1.40;;;21.60;42.50;;;;;;6288733;28;20021;-58
2021/01/08 08:37:07;;;;;;;2.33;1.40;;;21.60;42.50;;;;;;6295505;28;20028;-58
2021/01/08 08:40:08;;;;;;;2.03;1.60;;;21.60;42.40;;;;;;6293409;28;20028;-61
2021/01/08 08:43:19;;;;;;;1.70;1.40;;;21.60;42.50;;;;;;6276701;28;20033;-55
2021/01/08 08:46:20;;;;;;;2.63;1.50;;;21.70;42.50;;;;;;6276473;28;20031;-58
2021/01/08 08:49:28;;;;;;;4.72;1.70;;;21.70;42.50;;;;;;6276989;28;20024;-59
2021/01/08 08:52:29;;;;;;;1.88;1.52;;;21.70;42.40;;;;;;6276162;28;20077;-58
2021/01/08 08:55:32;;;;;;;3.03;1.50;;;21.70;42.50;;;;;;6276447;28;20024;-61
2021/01/08 08:58:44;;;;;;;2.03;1.33;;;21.80;42.40;;;;;;6276230;28;20040;-60
2021/01/08 09:01:44;;;;;;;1.58;1.38;;;21.70;42.40;;;;;;6276098;28;20456;-59
2021/01/08 09:04:58;;;;;;;4.55;1.50;;;21.70;42.40;;;;;;6275988;28;20038;-59
2021/01/08 09:08:09;;;;;;;3.17;1.90;;;21.80;42.60;;;;;;6276246;28;20133;-60
2021/01/08 09:11:29;;;;;;;3.72;1.52;;;21.80;42.50;;;;;;6254978;28;20033;-61
2021/01/08 09:14:32;;;;;;;7.30;1.73;;;21.80;42.20;;;;;;6268005;28;20036;-58
2021/01/08 09:17:39;;;;;;;2.60;1.55;;;21.90;42.50;;;;;;6268616;28;20033;-60
2021/01/08 09:20:52;;;;;;;8.02;1.60;;;21.90;42.50;;;;;;6275196;28;20489;-59
2021/01/08 09:23:57;;;;;;;7.97;1.77;;;21.90;42.70;;;;;;6275398;28;20038;-60
2021/01/08 09:27:00;;;;;;;3.47;1.73;;;21.90;42.30;;;;;;6275805;28;20041;-61
2021/01/08 09:30:12;;;;;;;1.70;1.45;;;21.90;42.30;;;;;;6275583;28;20090;-60
2021/01/08 09:33:13;;;;;;;3.13;1.75;;;22.00;42.20;;;;;;6275987;28;20049;-59
2021/01/08 09:36:14;;;;;;;8.02;1.95;;;21.90;42.50;;;;;;6275490;28;20032;-61
2021/01/08 09:39:16;;;;;;;4.82;1.98;;;21.90;42.50;;;;;;6287297;28;20489;-60
2021/01/08 09:42:17;;;;;;;5.95;1.85;;;21.90;42.50;;;;;;6292758;28;20103;-61
2021/01/08 09:45:18;;;;;;;7.00;2.05;;;21.80;42.60;;;;;;6291921;28;20043;-61
2021/01/08 09:48:22;;;;;;;2.95;1.98;;;21.90;42.70;;;;;;6266966;28;20025;-61
2021/01/08 09:51:23;;;;;;;5.33;1.50;;;21.80;42.60;;;;;;6275240;28;20028;-62
2021/01/08 09:54:23;;;;;;;3.30;1.67;;;21.80;42.60;;;;;;6270459;28;20017;-59
2021/01/08 09:57:28;;;;;;;2.25;1.80;;;21.80;42.60;;;;;;6274230;28;20020;-61
2021/01/08 10:00:35;;;;;;;2.10;1.85;;;21.90;42.60;;;;;;6266741;28;20013;-60
2021/01/08 10:03:36;;;;;;;2.95;1.75;;;21.90;42.60;;;;;;6266552;28;20029;-62
2021/01/08 10:06:55;;;;;;;2.78;1.90;;;21.90;42.60;;;;;;6274661;28;20017;-60
2021/01/08 10:09:56;;;;;;;2.58;1.80;;;21.90;42.60;;;;;;6272028;28;20051;-60
2021/01/08 10:12:58;;;;;;;2.38;1.77;;;21.80;42.50;;;;;;6291542;28;20029;-61
2021/01/08 10:16:05;;;;;;;2.05;1.73;;;21.80;42.60;;;;;;6274240;28;20056;-58
2021/01/08 10:19:09;;;;;;;3.25;2.30;;;21.80;42.60;;;;;;6270872;28;20127;-59
2021/01/08 10:22:10;;;;;;;4.18;1.92;;;21.80;42.60;;;;;;6274155;28;20017;-66
2021/01/08 10:25:27;;;;;;;4.53;2.13;;;21.80;42.60;;;;;;6270408;28;20027;-63
2021/01/08 10:28:28;;;;;;;12.02;1.95;;;21.80;42.80;;;;;;6271456;28;20039;-62
2021/01/08 10:31:28;;;;;;;5.22;1.90;;;21.90;42.50;;;;;;6291617;28;20404;-62
2021/01/08 10:34:33;;;;;;;3.42;2.08;;;22.00;42.40;;;;;;6278503;28;20469;-60
2021/01/08 10:37:33;;;;;;;2.47;2.00;;;22.00;42.40;;;;;;6274591;28;20048;-62
2021/01/08 10:40:34;;;;;;;2.30;1.55;;;22.00;42.50;;;;;;6290404;28;20035;-63
2021/01/08 10:43:35;;;;;;;2.90;1.85;;;22.00;42.40;;;;;;6274388;28;20078;-61
2021/01/08 10:46:35;;;;;;;4.05;1.80;;;22.00;42.50;;;;;;6280621;28;20017;-61
2021/01/08 10:49:39;;;;;;;1.98;1.70;;;22.00;42.60;;;;;;6255443;28;20366;-63
2021/01/08 10:52:40;;;;;;;5.57;2.17;;;22.00;42.50;;;;;;6274959;28;20109;-63
2021/01/08 10:55:40;;;;;;;2.70;1.90;;;22.00;42.60;;;;;;6274003;28;20020;-63
2021/01/08 10:58:41;;;;;;;2.65;2.00;;;21.90;42.60;;;;;;6274242;28;20027;-64
2021/01/08 11:01:43;;;;;;;7.40;1.80;;;21.90;43.00;;;;;;6273735;28;20025;-62
2021/01/08 11:04:44;;;;;;;4.22;1.92;;;22.00;42.90;;;;;;6266298;28;20182;-62
2021/01/08 11:07:45;;;;;;;3.35;1.75;;;22.00;42.60;;;;;;6274576;28;20024;-61
2021/01/08 11:10:45;;;;;;;2.35;1.90;;;21.90;42.60;;;;;;6267533;28;20049;-63
2021/01/08 11:13:46;;;;;;;2.70;1.77;;;22.00;42.70;;;;;;6274067;28;20182;-63
2021/01/08 11:16:46;;;;;;;2.17;1.73;;;21.90;42.80;;;;;;6265754;28;20025;-61
2021/01/08 11:19:47;;;;;;;3.40;1.95;;;21.90;42.90;;;;;;6258225;28;20067;-63
2021/01/08 11:22:48;;;;;;;2.33;1.90;;;21.90;42.90;;;;;;6289806;28;20029;-62
2021/01/08 11:25:49;;;;;;;6.05;2.00;;;21.90;42.90;;;;;;6270146;28;20028;-62
2021/01/08 11:28:50;;;;;;;2.85;1.95;;;21.90;42.90;;;;;;6283650;28;20036;-60
2021/01/08 11:31:50;;;;;;;3.03;1.90;;;21.80;42.90;;;;;;6276396;28;20115;-64
2021/01/08 11:34:51;;;;;;;7.85;1.98;;;21.90;42.90;;;;;;6278145;28;20546;-64
2021/01/08 11:37:53;;;;;;;4.20;2.30;;;21.90;42.90;;;;;;6278671;28;20038;-62
2021/01/08 11:40:53;;;;;;;4.38;2.35;;;22.00;43.20;;;;;;6278257;28;20027;-65
2021/01/08 11:43:54;;;;;;;6.90;3.40;;;22.00;42.90;;;;;;6278219;28;20017;-62
2021/01/08 11:46:54;;;;;;;5.43;2.40;;;22.00;41.90;;;;;;6278306;28;20579;-63
2021/01/08 11:49:55;;;;;;;6.15;3.42;;;22.00;42.40;;;;;;6272481;28;20478;-63
2021/01/08 11:52:55;;;;;;;6.85;3.35;;;22.00;42.20;;;;;;6267471;28;20446;-64
2021/01/08 11:55:56;;;;;;;8.75;2.67;;;22.00;42.10;;;;;;6279195;28;20100;-60
2021/01/08 11:58:57;;;;;;;7.50;3.33;;;22.00;42.40;;;;;;6278928;28;20411;-61
2021/01/08 12:02:04;;;;;;;6.63;3.08;;;22.00;42.30;;;;;;6277140;28;20111;-59
2021/01/08 12:05:05;;;;;;;13.45;7.95;;;21.90;42.10;;;;;;6277810;28;20028;-59
2021/01/08 12:08:06;;;;;;;13.93;10.20;;;21.60;37.70;;;;;;6295718;28;20055;-57
2021/01/08 12:11:06;;;;;;;8.80;7.03;;;21.10;33.90;;;;;;6277290;28;20624;-61
2021/01/08 12:14:07;;;;;;;10.55;6.40;;;21.10;37.40;;;;;;6277117;28;20039;-62
2021/01/08 12:17:09;;;;;;;6.05;4.55;;;21.40;38.90;;;;;;6276679;28;20028;-62
2021/01/08 12:20:10;;;;;;;5.75;4.07;;;21.50;38.70;;;;;;6268198;28;20029;-61
2021/01/08 12:23:10;;;;;;;7.60;3.40;;;21.70;38.70;;;;;;6276835;28;20460;-62
2021/01/08 12:26:16;;;;;;;4.90;3.33;;;21.70;39.10;;;;;;6286107;28;20021;-62
2021/01/08 12:29:16;;;;;;;3.50;2.63;;;21.80;39.50;;;;;;6279134;28;20032;-62
2021/01/08 12:32:17;;;;;;;3.45;2.50;;;21.80;39.70;;;;;;6295190;28;20416;-62
2021/01/08 12:35:19;;;;;;;4.00;2.55;;;21.90;40.00;;;;;;6276288;28;20016;-60
2021/01/08 12:38:20;;;;;;;2.88;2.45;;;21.80;39.80;;;;;;6277192;28;20028;-61
2021/01/08 12:41:20;;;;;;;3.00;2.17;;;21.90;40.10;;;;;;6276159;28;20035;-62
2021/01/08 12:44:21;;;;;;;2.30;2.03;;;21.90;40.30;;;;;;6276176;28;20081;-61
2021/01/08 12:47:21;;;;;;;3.40;2.28;;;21.90;40.10;;;;;;6276385;28;20028;-61
2021/01/08 12:50:22;;;;;;;2.92;2.28;;;22.00;39.80;;;;;;6294099;28;20032;-62
2021/01/08 12:53:22;;;;;;;2.70;2.10;;;22.00;39.90;;;;;;6274976;28;20059;-62
2021/01/08 12:56:33;;;;;;;2.50;1.88;;;22.00;40.10;;;;;;6275358;28;20020;-63
2021/01/08 12:59:34;;;;;;;4.15;2.30;;;22.00;40.40;;;;;;6268123;28;20033;-62
2021/01/08 13:02:35;;;;;;;4.03;2.38;;;22.00;40.40;;;;;;6267949;28;20021;-64
2021/01/08 13:05:35;;;;;;;4.57;2.05;;;22.00;40.70;;;;;;6292384;28;20028;-61
2021/01/08 13:08:36;;;;;;;2.42;1.65;;;22.10;40.60;;;;;;6276028;28;20465;-65
2021/01/08 13:11:38;;;;;;;3.55;2.13;;;22.10;40.70;;;;;;6293129;28;20012;-62
2021/01/08 13:14:38;;;;;;;3.38;1.85;;;22.10;40.50;;;;;;6274943;28;20111;-63
2021/01/08 13:17:40;;;;;;;2.90;1.95;;;22.10;40.70;;;;;;6273876;28;20508;-60
2021/01/08 13:20:41;;;;;;;3.92;1.70;;;22.10;41.60;;;;;;6263012;28;20021;-62
2021/01/08 13:23:45;;;;;;;5.70;1.80;;;22.20;40.80;;;;;;6275542;28;20036;-62
2021/01/08 13:26:47;;;;;;;2.47;1.83;;;22.20;40.90;;;;;;6275536;28;20465;-62
2021/01/08 13:29:47;;;;;;;4.05;1.90;;;22.20;41.20;;;;;;6293106;28;20044;-62
2021/01/08 13:32:48;;;;;;;2.53;1.75;;;22.20;41.80;;;;;;6271590;28;20021;-60
2021/01/08 13:35:48;;;;;;;2.15;1.70;;;22.20;41.00;;;;;;6275379;28;20042;-62
2021/01/08 13:38:49;;;;;;;3.17;2.00;;;22.20;41.10;;;;;;6274669;28;20119;-61
2021/01/08 13:42:00;;;;;;;2.15;1.80;;;22.20;41.10;;;;;;6274769;28;20070;-62
2021/01/08 13:45:00;;;;;;;3.90;1.92;;;22.20;41.10;;;;;;6270558;28;20074;-61
2021/01/08 13:48:06;;;;;;;2.05;1.80;;;22.20;41.20;;;;;;6270867;28;20024;-62
2021/01/08 13:51:06;;;;;;;2.65;1.77;;;22.20;41.20;;;;;;6274940;28;20033;-68
2021/01/08 13:54:07;;;;;;;4.10;2.03;;;22.10;41.20;;;;;;6269463;28;20370;-67
2021/01/08 13:57:09;;;;;;;6.03;2.00;;;22.20;40.90;;;;;;6272071;28;20107;-67
2021/01/08 14:00:10;;;;;;;7.95;2.20;;;22.30;41.00;;;;;;6266815;28;20048;-68
2021/01/08 14:03:12;;;;;;;4.80;1.77;;;22.30;41.00;;;;;;6254785;28;20025;-66
2021/01/08 14:06:19;;;;;;;5.80;1.75;;;22.30;40.80;;;;;;6265712;28;20021;-63
2021/01/08 14:09:20;;;;;;;8.73;1.85;;;22.40;41.00;;;;;;6269068;28;20021;-62
2021/01/08 14:12:20;;;;;;;4.30;2.17;;;22.30;41.30;;;;;;6274508;28;20119;-65
2021/01/08 14:15:21;;;;;;;4.53;1.90;;;22.30;41.40;;;;;;6280029;28;20495;-63
2021/01/08 14:18:22;;;;;;;4.07;2.13;;;22.30;41.20;;;;;;6274430;28;20115;-66
2021/01/08 14:21:30;;;;;;;6.55;2.03;;;22.30;41.30;;;;;;6265687;28;20625;-63
2021/01/08 14:24:30;;;;;;;5.82;1.92;;;22.40;41.40;;;;;;6287691;28;20029;-64
2021/01/08 14:27:31;;;;;;;13.15;2.30;;;22.40;41.60;;;;;;6274273;28;20086;-60
2021/01/08 14:30:32;;;;;;;10.20;3.30;;;22.40;41.50;;;;;;6274013;28;20024;-60
2021/01/08 14:33:32;;;;;;;10.55;7.43;;;22.10;40.20;;;;;;6273526;28;20393;-60
2021/01/08 14:36:34;;;;;;;15.93;8.75;;;21.50;34.60;;;;;;6271506;28;20021;-61
2021/01/08 14:39:35;;;;;;;8.90;6.03;;;21.10;33.00;;;;;;6291364;28;20033;-61
2021/01/08 14:42:36;;;;;;;8.32;4.43;;;21.20;37.50;;;;;;6273150;28;20029;-62
2021/01/08 14:45:36;;;;;;;8.50;4.10;;;21.50;38.50;;;;;;6271115;28;20516;-59
2021/01/08 14:48:39;;;;;;;11.27;4.10;;;21.70;38.70;;;;;;6271452;28;20832;-61
2021/01/08 14:51:40;;;;;;;8.70;4.03;;;21.80;38.70;;;;;;6274820;28;20028;-61
2021/01/08 14:54:41;;;;;;;10.43;3.60;;;21.90;39.00;;;;;;6268799;28;20016;-54
2021/01/08 14:57:42;;;;;;;7.75;3.25;;;22.00;38.80;;;;;;6265002;28;20390;-61
2021/01/08 15:00:42;;;;;;;8.95;2.78;;;22.00;39.40;;;;;;6272136;28;20020;-61
2021/01/08 15:03:43;;;;;;;4.97;2.97;;;22.00;39.60;;;;;;6273331;28;20021;-60
2021/01/08 15:06:43;;;;;;;8.02;2.80;;;22.00;39.70;;;;;;6277678;28;20017;-62
2021/01/08 15:09:45;;;;;;;6.03;2.53;;;22.00;39.90;;;;;;6278035;28;20034;-61
2021/01/08 15:12:48;;;;;;;4.70;2.35;;;22.10;39.90;;;;;;6277829;28;20111;-60
2021/01/08 15:15:49;;;;;;;6.78;2.40;;;22.00;39.90;;;;;;6272614;28;20032;-59
2021/01/08 15:18:50;;;;;;;7.75;2.35;;;22.10;40.00;;;;;;6277887;28;20028;-62
2021/01/08 15:21:51;;;;;;;19.02;3.00;;;22.10;40.00;;;;;;6274949;28;20031;-59
2021/01/08 15:24:53;;;;;;;13.18;2.95;;;22.10;40.00;;;;;;6294931;28;20025;-61
2021/01/08 15:27:54;;;;;;;3.40;1.60;;;22.10;40.10;;;;;;6277073;28;20393;-62
2021/01/08 15:30:56;;;;;;;16.33;2.50;;;22.10;40.20;;;;;;6277428;28;20048;-61
2021/01/08 15:33:57;;;;;;;15.90;2.80;;;22.10;40.20;;;;;;6277525;28;20029;-61
2021/01/08 15:36:57;;;;;;;11.15;2.67;;;22.10;40.30;;;;;;6278310;28;20028;-61
2021/01/08 15:39:59;;;;;;;29.80;3.08;;;22.10;40.20;;;;;;6283726;28;20025;-61
2021/01/08 15:43:00;;;;;;;21.38;2.85;;;22.10;40.50;;;;;;6270063;28;20024;-60
2021/01/08 15:46:01;;;;;;;13.77;1.92;;;22.10;40.80;;;;;;6278286;28;20020;-62
2021/01/08 15:49:01;;;;;;;18.67;1.90;;;22.00;40.50;;;;;;6271220;28;20029;-58